Time;durP1;ratioP1;P1;durP2;ratioP2;P2;SDS_P1;SDS_P2;PMS_P1;PMS_P2;Temp;Humidity;BMP_temperature;BMP_pressure;BME280_temperature;BME280_humidity;BME280_pressure;Samples;Min_cycle;Max_cycle;Signal;HPM_P1;HPM_P2
2022/06/23 00:01:45;;;;;;;3.50;2.63;;;;;;;18.52;49.28;100719.97;7399277;19;20371;-65
2022/06/23 00:04:15;;;;;;;4.05;2.70;;;;;;;18.49;49.75;100722.81;7398002;19;20015;-66
2022/06/23 00:06:48;;;;;;;4.22;2.67;;;;;;;18.46;50.16;100720.31;7399389;19;20042;-66
2022/06/23 00:09:31;;;;;;;5.90;3.13;;;;;;;18.42;51.19;100716.13;7397252;19;20031;-66
2022/06/23 00:12:00;;;;;;;7.30;3.17;;;;;;;18.41;50.96;100714.41;7399687;19;20014;-66
2022/06/23 00:14:30;;;;;;;4.30;2.53;;;;;;;18.37;51.46;100719.03;7396970;19;20497;-66
2022/06/23 00:17:17;;;;;;;4.05;3.10;;;;;;;18.32;52.55;100718.41;7398703;19;20014;-66
2022/06/23 00:19:46;;;;;;;3.42;2.75;;;;;;;18.29;52.34;100715.94;7395732;19;20481;-66
2022/06/23 00:22:16;;;;;;;7.00;3.40;;;;;;;18.26;52.52;100715.25;7398538;19;20014;-66
2022/06/23 00:24:48;;;;;;;6.47;3.47;;;;;;;18.23;53.19;100726.88;7396767;19;20078;-66
2022/06/23 00:27:19;;;;;;;6.35;3.55;;;;;;;18.20;53.31;100729.72;7398971;19;20030;-66
2022/06/23 00:29:49;;;;;;;9.07;3.35;;;;;;;18.16;53.41;100733.47;7398939;19;20099;-66
2022/06/23 00:32:21;;;;;;;5.07;3.22;;;;;;;18.12;54.00;100734.56;7396413;19;20031;-66
2022/06/23 00:35:05;;;;;;;7.07;2.97;;;;;;;18.07;54.80;100735.69;7396203;19;20022;-67
2022/06/23 00:37:33;;;;;;;;;;;;;;;18.04;54.65;100737.63;7397262;19;20516;-66
2022/06/23 00:40:04;;;;;;;4.55;3.03;;;;;;;17.98;54.46;100733.50;7397088;19;19922;-66
2022/06/23 00:42:36;;;;;;;4.15;3.70;;;;;;;17.92;55.04;100731.16;7398488;19;20022;-67
2022/06/23 00:45:22;;;;;;;4.47;3.65;;;;;;;17.88;55.75;100733.13;7397729;19;20027;-66
2022/06/23 00:47:58;;;;;;;4.10;3.70;;;;;;;17.84;56.06;100733.34;7398429;19;20019;-66
2022/06/23 00:50:32;;;;;;;6.03;3.80;;;;;;;17.83;56.17;100736.94;7397676;19;20493;-66
2022/06/23 00:53:02;;;;;;;;;;;;;;;17.81;56.22;100730.88;7398987;19;20031;-67
2022/06/23 00:55:42;;;;;;;3.92;3.50;;;;;;;17.77;56.37;100737.25;7397380;19;19935;-66
2022/06/23 00:58:24;;;;;;;5.97;4.40;;;;;;;17.72;56.85;100732.22;7396279;19;20019;-66
2022/06/23 01:00:55;;;;;;;5.15;4.30;;;;;;;17.68;57.32;100736.81;7395725;19;20378;-66
2022/06/23 01:03:32;;;;;;;7.28;5.00;;;;;;;17.63;58.05;100736.19;7396395;19;20035;-66
2022/06/23 02:49:46;;;;;;;8.27;5.38;;;;;;;16.26;65.57;100775.38;7387792;19;20354;-66
2022/06/23 02:52:43;;;;;;;10.75;6.05;;;;;;;16.20;65.43;100783.59;7394380;19;20031;-65
2022/06/23 02:55:39;;;;;;;8.52;5.35;;;;;;;16.15;65.84;100777.66;7393692;19;20015;-66
2022/06/23 02:58:12;;;;;;;7.43;5.38;;;;;;;16.07;65.43;100776.19;7394622;19;20082;-66
2022/06/23 03:00:47;;;;;;;12.15;5.47;;;;;;;16.03;65.76;100782.56;7399648;19;20023;-66
2022/06/23 03:03:25;;;;;;;6.25;4.95;;;;;;;15.97;66.24;100796.06;7400076;19;20023;-66
2022/06/23 03:06:01;;;;;;;7.95;6.50;;;;;;;15.93;66.42;100795.34;7401766;19;20026;-66
2022/06/23 03:08:34;;;;;;;6.88;5.18;;;;;;;15.89;66.72;100798.19;7401616;19;20031;-66
2022/06/23 03:11:09;;;;;;;7.10;6.13;;;;;;;15.86;66.46;100800.97;7401542;19;20023;-66
2022/06/23 03:13:45;;;;;;;9.35;5.97;;;;;;;15.82;66.84;100802.88;7400103;19;20031;-66
2022/06/23 03:16:23;;;;;;;9.15;5.50;;;;;;;15.76;66.96;100806.63;7401191;19;20023;-66
2022/06/23 03:18:58;;;;;;;7.00;5.47;;;;;;;15.74;67.04;100803.16;7401234;19;20039;-66
2022/06/23 03:21:32;;;;;;;8.80;7.10;;;;;;;15.72;67.57;100809.44;7398435;19;20031;-65
2022/06/23 03:24:08;;;;;;;8.57;6.97;;;;;;;15.67;67.71;100819.38;7399237;19;20021;-67
2022/06/23 03:26:43;;;;;;;9.00;7.50;;;;;;;15.57;68.09;100819.75;7400304;19;20461;-66
2022/06/23 03:29:18;;;;;;;10.35;8.05;;;;;;;15.53;68.39;100836.69;7400975;19;20040;-66
2022/06/23 03:32:12;;;;;;;10.55;7.90;;;;;;;15.47;68.77;100843.06;7400616;19;20016;-65
2022/06/23 03:34:46;;;;;;;8.15;6.93;;;;;;;15.39;68.73;100842.53;7398130;19;20035;-66
2022/06/23 03:37:19;;;;;;;;;;;;;;;15.35;69.10;100848.84;7401108;19;20022;-65
2022/06/23 03:42:38;;;;;;;10.25;7.80;;;;;;;15.24;69.41;100838.72;7399698;19;20011;-66
2022/06/23 03:45:14;;;;;;;8.95;7.65;;;;;;;15.19;69.59;100839.81;7397510;19;20019;-65
2022/06/23 03:47:52;;;;;;;9.43;7.82;;;;;;;15.17;69.78;100834.59;7400332;19;20031;-66
2022/06/23 03:50:26;;;;;;;10.57;7.35;;;;;;;15.14;70.29;100830.28;7399014;19;20010;-66
2022/06/23 03:53:01;;;;;;;8.65;7.75;;;;;;;15.15;70.04;100836.41;7397442;19;20018;-65
2022/06/23 03:55:33;;;;;;;9.43;7.18;;;;;;;15.15;70.15;100841.69;7399206;19;20540;-65
2022/06/23 03:58:06;;;;;;;9.70;7.57;;;;;;;15.16;70.41;100838.13;7399251;19;20018;-66
2022/06/23 04:00:38;;;;;;;8.93;7.50;;;;;;;15.19;70.54;100839.81;7396904;19;20041;-67
2022/06/23 04:03:30;;;;;;;8.85;7.57;;;;;;;15.22;70.85;100852.91;7398589;19;20022;-66
2022/06/23 04:06:25;;;;;;;14.48;7.78;;;;;;;15.21;71.00;100844.09;7397801;19;20037;-67
2022/06/23 04:09:03;;;;;;;11.13;7.40;;;;;;;15.21;70.80;100854.69;7398243;19;20477;-66
2022/06/23 04:11:46;;;;;;;10.20;7.80;;;;;;;15.20;70.80;100858.22;7399270;19;20417;-67
2022/06/23 04:14:24;;;;;;;9.70;7.43;;;;;;;15.20;70.82;100852.09;7397153;19;20019;-67
2022/06/23 04:16:57;;;;;;;10.98;8.15;;;;;;;15.18;71.28;100848.66;7399065;19;20015;-66
2022/06/23 04:19:31;;;;;;;10.23;7.85;;;;;;;15.18;71.06;100848.66;7398958;19;20019;-67
2022/06/23 04:22:07;;;;;;;9.40;8.07;;;;;;;15.17;71.60;100846.94;7396669;19;20019;-67
2022/06/23 04:24:40;;;;;;;8.30;7.30;;;;;;;15.15;71.77;100854.91;7396565;19;20076;-67
2022/06/23 04:27:18;;;;;;;12.85;7.45;;;;;;;15.15;71.89;100842.56;7398563;19;20019;-66
2022/06/23 04:29:50;;;;;;;10.80;8.25;;;;;;;15.18;71.78;100846.00;7397983;19;20022;-66
2022/06/23 04:32:24;;;;;;;8.27;7.47;;;;;;;15.21;71.73;100849.38;7397302;19;20031;-67
2022/06/23 04:34:57;;;;;;;8.98;7.57;;;;;;;15.26;71.47;100865.94;7394371;19;20544;-67
2022/06/23 04:37:34;;;;;;;9.68;7.80;;;;;;;15.32;71.25;100862.19;7395849;19;20018;-66
2022/06/23 04:40:16;;;;;;;11.20;8.15;;;;;;;15.38;71.31;100871.66;7394744;19;20018;-67
2022/06/23 04:42:57;;;;;;;9.18;7.55;;;;;;;15.42;71.09;100873.28;7395636;19;20087;-67
2022/06/23 04:45:36;;;;;;;10.38;7.80;;;;;;;15.45;71.08;100876.63;7396521;19;20028;-66
2022/06/23 04:48:13;;;;;;;10.38;8.23;;;;;;;15.51;70.86;100880.81;7396407;19;20015;-67
2022/06/23 04:50:46;;;;;;;11.30;7.75;;;;;;;15.58;70.87;100884.06;7396163;19;20090;-66
2022/06/23 04:53:37;;;;;;;9.17;7.27;;;;;;;15.63;70.87;100892.69;7396372;19;20015;-66
2022/06/23 04:56:16;;;;;;;8.65;7.55;;;;;;;15.68;70.66;100896.00;7396733;19;20515;-65
2022/06/23 04:58:49;;;;;;;10.75;7.60;;;;;;;15.71;70.48;100895.88;7396663;19;20092;-67
2022/06/23 05:01:22;;;;;;;7.78;6.97;;;;;;;15.74;70.64;100895.75;7393717;19;20018;-65
2022/06/23 05:03:54;;;;;;;8.30;6.60;;;;;;;15.76;70.22;100891.25;7395180;19;20011;-65
2022/06/23 05:06:35;;;;;;;11.88;6.65;;;;;;;15.83;70.43;100891.03;7395401;19;20022;-65
2022/06/23 05:09:08;;;;;;;8.60;6.78;;;;;;;15.89;70.27;100885.50;7395186;19;20086;-66
2022/06/23 05:11:45;;;;;;;8.57;6.63;;;;;;;15.94;70.10;100887.03;7395396;19;20481;-66
2022/06/23 05:14:20;;;;;;;10.63;6.53;;;;;;;16.00;69.77;100887.69;7394588;19;20014;-67
2022/06/23 05:17:18;;;;;;;10.05;7.20;;;;;;;16.07;69.73;100889.16;7395564;19;20011;-66
2022/06/23 05:19:48;;;;;;;13.77;7.45;;;;;;;16.15;69.56;100887.06;7392063;19;20018;-66
2022/06/23 05:22:28;;;;;;;6.85;5.65;;;;;;;16.20;69.07;100881.53;7393461;19;20036;-67
2022/06/23 05:25:00;;;;;;;8.52;6.00;;;;;;;16.31;68.92;100891.69;7395779;19;20019;-66
2022/06/23 05:27:35;;;;;;;9.65;5.93;;;;;;;16.38;68.80;100890.50;7395997;19;20431;-67
2022/06/23 05:30:15;;;;;;;8.43;5.75;;;;;;;16.46;68.50;100891.00;7396533;19;20018;-67
2022/06/23 05:32:49;;;;;;;9.48;6.35;;;;;;;16.52;68.47;100893.38;7395492;19;20462;-67
2022/06/23 05:35:22;;;;;;;10.98;6.20;;;;;;;16.59;67.95;100893.97;7396411;19;20023;-67
2022/06/23 05:37:55;;;;;;;9.27;6.07;;;;;;;16.65;67.86;100899.00;7395542;19;20384;-67
2022/06/23 05:40:29;;;;;;;7.30;6.30;;;;;;;16.70;67.56;100897.00;7395252;19;20481;-66
2022/06/23 05:43:02;;;;;;;9.35;6.28;;;;;;;16.77;67.65;100897.59;7394442;19;20537;-66
2022/06/23 05:45:38;;;;;;;10.07;5.50;;;;;;;16.83;67.46;100899.09;7395751;19;20010;-66
2022/06/23 05:48:10;;;;;;;9.63;6.00;;;;;;;16.89;67.42;100906.75;7395380;19;20021;-67
2022/06/23 05:50:49;;;;;;;9.13;6.32;;;;;;;16.91;67.10;100900.50;7394063;19;20089;-66
2022/06/23 05:53:25;;;;;;;7.75;5.63;;;;;;;16.95;67.11;100911.81;7393768;19;20019;-66
2022/06/23 05:55:59;;;;;;;6.38;5.65;;;;;;;16.99;66.79;100905.44;7395017;19;20435;-67
2022/06/23 05:58:35;;;;;;;6.32;5.65;;;;;;;17.03;67.00;100907.00;7395880;19;20007;-67
2022/06/23 06:01:13;;;;;;;9.43;5.68;;;;;;;17.10;66.84;100910.25;7393636;19;20022;-66
2022/06/23 06:03:45;;;;;;;7.28;5.38;;;;;;;17.18;66.70;100909.91;7393714;19;20354;-66
2022/06/23 06:06:14;;;;;;;10.70;5.17;;;;;;;17.25;66.68;100914.00;7394690;19;20018;-67
2022/06/23 06:11:36;;;;;;;6.85;5.55;;;;;;;17.38;66.41;100916.91;7391145;19;20025;-67
2022/06/23 06:14:08;;;;;;;7.38;5.70;;;;;;;17.42;66.30;100926.44;7392861;19;20041;-67
2022/06/23 06:16:36;;;;;;;5.85;5.18;;;;;;;17.47;66.38;100926.22;7394441;19;20086;-67
2022/06/23 06:19:04;;;;;;;6.30;5.68;;;;;;;17.51;66.31;100923.34;7394034;19;20436;-67
2022/06/23 06:21:33;;;;;;;9.40;5.15;;;;;;;17.55;66.04;100930.22;7393265;19;20094;-67
2022/06/23 06:24:06;;;;;;;8.40;5.95;;;;;;;17.61;65.93;100929.06;7392398;19;20018;-65
2022/06/23 06:26:38;;;;;;;7.38;5.70;;;;;;;17.68;65.70;100930.50;7391728;19;20019;-66
2022/06/23 06:29:15;;;;;;;5.30;4.80;;;;;;;17.77;65.37;100928.31;7392287;19;20023;-65
2022/06/23 06:31:47;;;;;;;6.53;5.13;;;;;;;17.84;65.57;100932.38;7397046;19;20011;-66
2022/06/23 06:34:19;;;;;;;5.75;5.07;;;;;;;17.89;65.27;100920.63;7398036;19;20391;-67
2022/06/23 06:36:51;;;;;;;8.07;5.13;;;;;;;17.94;65.10;100916.91;7402005;19;20018;-66
2022/06/23 06:39:22;;;;;;;7.75;5.53;;;;;;;18.00;64.72;100920.09;7401456;19;20022;-65
2022/06/23 06:41:56;;;;;;;6.78;5.20;;;;;;;18.06;64.78;100917.13;7398707;19;20549;-67
2022/06/23 06:44:29;;;;;;;8.68;5.85;;;;;;;18.13;64.44;100915.03;7398045;19;20051;-66
2022/06/23 06:46:58;;;;;;;8.75;5.45;;;;;;;18.21;64.40;100918.16;7399127;19;20040;-66
2022/06/23 06:49:29;;;;;;;5.72;5.10;;;;;;;18.28;63.99;100921.34;7397656;19;20039;-66
2022/06/23 06:52:06;;;;;;;6.25;5.20;;;;;;;18.34;63.55;100923.69;7398328;19;20516;-66
2022/06/23 06:54:43;;;;;;;9.00;5.13;;;;;;;18.40;63.43;100919.88;7398764;19;20030;-65
2022/06/23 06:57:23;;;;;;;6.63;4.43;;;;;;;18.48;63.18;100922.13;7402474;19;20078;-66
2022/06/23 07:00:05;;;;;;;7.50;4.57;;;;;;;18.55;62.66;100920.84;7398383;19;20096;-67
2022/06/23 07:02:39;;;;;;;7.65;4.57;;;;;;;18.63;62.78;100923.13;7398576;19;20090;-66
2022/06/23 07:05:20;;;;;;;5.70;5.10;;;;;;;18.70;62.53;100925.38;7400896;19;20022;-66
2022/06/23 07:07:54;;;;;;;7.13;4.13;;;;;;;18.79;62.42;100926.69;7400585;19;20488;-66
2022/06/23 07:10:31;;;;;;;7.28;4.68;;;;;;;18.88;62.16;100920.03;7400814;19;20073;-66
2022/06/23 07:13:04;;;;;;;7.32;4.80;;;;;;;18.99;61.93;100930.09;7397927;19;20406;-66
2022/06/23 07:15:46;;;;;;;8.05;4.03;;;;;;;19.10;62.06;100924.22;7400885;19;20031;-66
2022/06/23 07:18:21;;;;;;;7.25;4.70;;;;;;;19.20;61.92;100930.72;7400994;19;20032;-66
2022/06/23 07:20:55;;;;;;;5.18;4.50;;;;;;;19.31;61.20;100938.97;7397971;19;20035;-66
2022/06/23 07:23:29;;;;;;;6.22;4.00;;;;;;;19.42;60.09;100940.19;7397757;19;20097;-66
2022/06/23 07:26:16;;;;;;;6.55;4.13;;;;;;;19.51;59.66;100931.66;7398161;19;20082;-67
2022/06/23 07:28:48;;;;;;;4.88;3.45;;;;;;;19.61;59.38;100932.84;7399921;19;20028;-66
2022/06/23 07:31:23;;;;;;;6.15;4.13;;;;;;;19.70;58.75;100934.13;7399260;19;20485;-67
2022/06/23 07:33:58;;;;;;;4.88;4.22;;;;;;;19.78;57.01;100937.22;7397338;19;20035;-67
2022/06/23 07:36:33;;;;;;;4.57;3.80;;;;;;;19.88;57.94;100931.41;7399293;19;20014;-67
2022/06/23 07:39:07;;;;;;;7.10;3.83;;;;;;;19.98;57.59;100928.13;7398952;19;20427;-67
2022/06/23 07:41:41;;;;;;;5.63;4.10;;;;;;;20.10;56.97;100928.34;7396041;19;20015;-65
2022/06/23 07:44:17;;;;;;;6.43;3.70;;;;;;;20.19;56.82;100935.78;7395282;19;20022;-66
2022/06/23 07:46:49;;;;;;;5.82;4.28;;;;;;;20.32;56.68;100934.13;7398818;19;20085;-66
2022/06/23 07:49:17;;;;;;;6.72;4.28;;;;;;;20.42;56.80;100934.44;7398834;19;20489;-66
2022/06/23 07:51:46;;;;;;;4.88;3.88;;;;;;;20.51;56.17;100930.38;7397316;19;20032;-66
2022/06/23 07:54:19;;;;;;;8.70;3.85;;;;;;;20.61;55.90;100934.19;7397507;19;20027;-67
2022/06/23 07:56:49;;;;;;;5.15;3.47;;;;;;;20.70;55.87;100926.53;7397325;19;20018;-67
2022/06/23 07:59:20;;;;;;;6.93;3.50;;;;;;;20.80;55.73;100931.25;7396890;19;20035;-66
2022/06/23 08:01:55;;;;;;;7.28;4.00;;;;;;;20.91;55.20;100933.25;7397594;19;20485;-66
2022/06/23 08:04:35;;;;;;;6.15;3.70;;;;;;;21.01;55.05;100930.88;7397052;19;20135;-69
2022/06/23 08:07:08;;;;;;;6.70;3.80;;;;;;;21.14;54.64;100922.94;7398611;19;20037;-69
2022/06/23 08:09:42;;;;;;;4.90;3.30;;;;;;;21.25;54.13;100925.78;7396645;19;20024;-69
2022/06/23 08:17:47;;;;;;;6.13;3.40;;;;;;;21.53;52.62;100924.00;7396453;19;20421;-68
2022/06/23 08:20:20;;;;;;;5.78;3.85;;;;;;;21.62;52.80;100928.78;7398732;19;20039;-69
2022/06/23 08:22:52;;;;;;;3.55;3.10;;;;;;;21.75;52.28;100928.84;7396824;19;20029;-68
2022/06/23 08:25:21;;;;;;;8.93;3.53;;;;;;;21.85;52.08;100928.22;7394713;19;20480;-69
2022/06/23 08:27:52;;;;;;;4.43;3.15;;;;;;;21.94;51.88;100925.78;7397569;19;20010;-69
2022/06/23 08:30:21;;;;;;;4.95;3.33;;;;;;;22.02;51.89;100927.94;7398521;19;20026;-69
2022/06/23 08:32:54;;;;;;;3.33;2.92;;;;;;;22.12;51.41;100925.50;7397820;19;20489;-69
2022/06/23 08:35:28;;;;;;;5.20;2.90;;;;;;;22.20;51.03;100925.00;7398363;19;20042;-69
2022/06/23 08:38:01;;;;;;;8.73;3.40;;;;;;;22.29;51.01;100922.56;7397708;19;20105;-69
2022/06/23 08:40:39;;;;;;;4.18;3.10;;;;;;;22.38;49.69;100914.88;7398194;19;20026;-69
2022/06/23 08:43:18;;;;;;;4.43;2.90;;;;;;;22.48;49.71;100910.59;7395822;19;20018;-69
2022/06/23 08:45:53;;;;;;;3.53;2.70;;;;;;;22.59;49.09;100912.53;7396825;19;20018;-69
2022/06/23 08:48:28;;;;;;;3.47;2.60;;;;;;;22.69;47.83;100915.44;7397599;19;20039;-69
2022/06/23 08:51:03;;;;;;;4.63;2.88;;;;;;;22.78;47.47;100909.44;7394623;19;20015;-69
2022/06/23 08:53:54;;;;;;;3.20;2.53;;;;;;;22.86;45.99;100909.75;7394518;19;20018;-70
2022/06/23 08:56:29;;;;;;;2.63;2.40;;;;;;;22.96;46.68;100903.72;7397166;19;20026;-70
2022/06/23 08:59:03;;;;;;;2.40;2.20;;;;;;;23.04;46.23;100906.72;7396375;19;20487;-68
2022/06/23 09:01:37;;;;;;;5.00;2.40;;;;;;;23.13;45.28;100900.69;7395614;19;20031;-69
2022/06/23 09:04:12;;;;;;;;;;;;;;;23.21;44.92;100901.00;7396638;19;20070;-69
2022/06/23 09:06:44;;;;;;;2.42;2.10;;;;;;;23.30;45.46;100904.84;7397553;19;19923;-68
2022/06/23 09:09:25;;;;;;;2.20;1.83;;;;;;;23.38;42.95;100891.78;7394994;19;20026;-68
2022/06/23 09:12:02;;;;;;;3.63;1.88;;;;;;;23.49;43.25;100892.78;7395334;19;20019;-68
2022/06/23 09:14:52;;;;;;;4.15;2.35;;;;;;;23.57;42.14;100887.75;7394459;19;20103;-68
2022/06/23 09:17:36;;;;;;;3.90;1.70;;;;;;;23.64;41.27;100893.47;7395979;19;20018;-69
2022/06/23 09:20:29;;;;;;;2.92;2.05;;;;;;;23.73;41.30;100887.41;7396373;19;20074;-70
2022/06/23 09:23:17;;;;;;;3.72;2.33;;;;;;;23.83;41.51;100883.06;7394144;19;20481;-70
2022/06/23 09:25:55;;;;;;;4.65;2.33;;;;;;;23.91;41.16;100883.41;7395880;19;20468;-70
2022/06/23 09:28:36;;;;;;;3.28;2.13;;;;;;;24.01;39.59;100885.34;7395864;19;20489;-70
2022/06/23 09:31:20;;;;;;;1.83;1.50;;;;;;;24.12;39.26;100876.50;7396286;19;20119;-70
2022/06/23 09:34:04;;;;;;;5.03;2.50;;;;;;;24.21;38.94;100886.50;7395187;19;20022;-71
2022/06/23 09:36:49;;;;;;;2.65;2.05;;;;;;;24.29;38.84;100880.56;7395056;19;20485;-70
2022/06/23 09:40:00;;;;;;;2.42;1.80;;;;;;;24.35;38.47;100880.06;7396061;19;20033;-71
2022/06/23 09:43:00;;;;;;;4.43;1.95;;;;;;;24.43;38.33;100877.66;7394257;19;20022;-70
2022/06/23 09:45:49;;;;;;;1.98;1.65;;;;;;;24.51;36.57;100872.53;7395040;19;20483;-69
2022/06/23 09:48:51;;;;;;;3.90;2.35;;;;;;;24.60;36.47;100873.63;7395264;19;20484;-71
2022/06/23 09:51:46;;;;;;;5.38;1.83;;;;;;;24.67;36.88;100871.38;7393965;19;20549;-70
2022/06/23 09:54:53;;;;;;;3.25;1.80;;;;;;;24.73;35.84;100873.53;7393635;19;20018;-69
2022/06/23 09:57:45;;;;;;;2.10;1.50;;;;;;;24.83;36.37;100879.03;7395162;19;20035;-70
2022/06/23 10:00:17;;;;;;;1.80;1.40;;;;;;;24.91;36.02;100870.34;7392752;19;20492;-69
2022/06/23 10:02:56;;;;;;;5.22;1.60;;;;;;;24.99;36.02;100871.44;7393313;19;20360;-70
2022/06/23 10:05:47;;;;;;;2.72;1.40;;;;;;;25.10;35.39;100869.72;7392260;19;20038;-69
2022/06/23 10:08:30;;;;;;;2.35;1.70;;;;;;;25.18;34.94;100861.91;7394939;19;20019;-70
2022/06/23 10:11:32;;;;;;;2.75;1.55;;;;;;;25.26;32.96;100869.34;7394534;19;20157;-70
2022/06/23 10:14:20;;;;;;;2.72;1.70;;;;;;;25.34;32.58;100864.19;7394074;19;20022;-70
2022/06/23 10:17:10;;;;;;;2.85;1.58;;;;;;;25.41;32.92;100860.03;7395848;19;20022;-70
2022/06/23 10:19:56;;;;;;;3.65;1.80;;;;;;;25.48;32.83;100873.81;7391783;19;20031;-70
2022/06/23 10:22:41;;;;;;;2.83;1.60;;;;;;;25.55;33.09;100860.72;7393258;19;20028;-69
2022/06/23 10:25:38;;;;;;;3.53;1.50;;;;;;;25.58;32.86;100863.16;7393005;19;20433;-70
2022/06/23 10:28:46;;;;;;;2.45;1.50;;;;;;;25.63;32.59;100860.91;7393305;19;20019;-70
2022/06/23 10:31:29;;;;;;;3.97;1.80;;;;;;;25.65;32.03;100846.38;7391434;19;20011;-70
2022/06/23 10:34:22;;;;;;;6.63;1.67;;;;;;;25.74;31.43;100862.72;7391921;19;20466;-70
2022/06/23 10:37:11;;;;;;;1.73;1.52;;;;;;;25.81;31.90;100854.00;7391278;19;20480;-70
2022/06/23 10:40:00;;;;;;;4.03;1.70;;;;;;;25.86;31.09;100857.16;7392308;19;20019;-70
2022/06/23 10:42:56;;;;;;;1.95;1.60;;;;;;;25.92;31.32;100857.63;7393500;19;20014;-70
2022/06/23 10:45:38;;;;;;;2.95;1.70;;;;;;;25.97;31.73;100841.94;7393452;19;20075;-69
2022/06/23 10:48:41;;;;;;;1.57;1.47;;;;;;;26.08;30.97;100839.22;7391997;19;20014;-69
2022/06/23 10:51:21;;;;;;;4.93;1.85;;;;;;;26.18;30.25;100839.28;7391696;19;20481;-70
2022/06/23 10:54:16;;;;;;;3.50;1.70;;;;;;;26.28;30.22;100837.50;7393200;19;20021;-70
2022/06/23 10:57:01;;;;;;;1.85;1.45;;;;;;;26.37;30.63;100833.16;7391998;19;20538;-70
2022/06/23 10:59:55;;;;;;;3.80;1.60;;;;;;;26.47;30.27;100828.66;7393686;19;20016;-71
2022/06/23 11:02:51;;;;;;;1.92;1.83;;;;;;;26.62;30.21;100823.78;7391929;19;20010;-68
2022/06/23 11:05:44;;;;;;;4.30;1.70;;;;;;;26.76;28.82;100825.25;7391918;19;20018;-70
2022/06/23 11:08:28;;;;;;;6.03;2.30;;;;;;;26.87;28.98;100821.63;7393573;19;20087;-70
2022/06/23 11:11:11;;;;;;;36.42;6.70;;;;;;;26.95;29.27;100819.06;7392730;19;20015;-69
2022/06/23 11:13:49;;;;;;;5.63;1.83;;;;;;;27.08;28.99;100826.91;7391134;19;20475;-69
2022/06/23 11:16:31;;;;;;;3.50;1.65;;;;;;;27.18;28.34;100818.81;7389340;19;20509;-69
2022/06/23 11:19:17;;;;;;;2.80;1.35;;;;;;;27.26;28.38;100815.44;7395375;19;20018;-69
2022/06/23 11:22:11;;;;;;;3.17;1.48;;;;;;;27.34;28.69;100807.50;7399059;19;20078;-69
2022/06/23 11:24:51;;;;;;;5.28;1.70;;;;;;;27.42;28.30;100807.69;7396667;19;20018;-70
2022/06/23 11:27:30;;;;;;;2.35;1.50;;;;;;;27.48;28.48;100804.41;7396213;19;20495;-70
2022/06/23 11:30:13;;;;;;;2.78;1.30;;;;;;;27.57;28.15;100802.69;7397353;19;20074;-70
2022/06/23 11:33:03;;;;;;;4.13;1.40;;;;;;;27.69;28.08;100803.41;7396512;19;20477;-70
2022/06/23 11:35:43;;;;;;;3.28;1.40;;;;;;;27.87;27.78;100803.53;7398305;19;20027;-71
2022/06/23 11:38:49;;;;;;;2.65;1.50;;;;;;;28.04;28.29;100795.69;7395504;19;20079;-68
2022/06/23 11:41:36;;;;;;;10.80;6.10;;;;;;;28.25;27.18;100795.50;7396619;19;20026;-70
2022/06/23 11:44:28;;;;;;;11.82;7.63;;;;;;;28.48;26.64;100789.72;7396382;19;20031;-70
2022/06/23 11:47:04;;;;;;;3.80;1.70;;;;;;;28.70;26.72;100789.34;7399466;19;20015;-70
2022/06/23 11:49:50;;;;;;;4.88;1.55;;;;;;;28.95;25.67;100795.00;7399765;19;20017;-69
2022/06/23 11:52:43;;;;;;;3.67;2.58;;;;;;;29.23;25.46;100779.59;7396947;19;20513;-70
2022/06/23 11:55:25;;;;;;;2.92;1.40;;;;;;;29.48;24.66;100781.69;7400373;19;20010;-70
2022/06/23 11:58:16;;;;;;;3.30;1.50;;;;;;;29.74;24.77;100782.56;7397431;19;20031;-70
2022/06/23 12:00:58;;;;;;;2.60;1.20;;;;;;;30.02;24.72;100778.91;7398323;19;20011;-70
2022/06/23 12:03:53;;;;;;;2.35;1.77;;;;;;;30.25;23.71;100776.47;7396918;19;20480;-70
2022/06/23 12:06:35;;;;;;;2.65;1.50;;;;;;;30.48;23.39;100767.81;7398723;19;20014;-70
2022/06/23 12:09:17;;;;;;;2.80;1.40;;;;;;;30.68;22.63;100777.34;7398215;19;20018;-69
2022/06/23 12:11:45;;;;;;;2.88;1.10;;;;;;;30.87;22.67;100764.53;7398515;19;20022;-70
2022/06/23 12:14:17;;;;;;;2.28;1.50;;;;;;;31.08;22.46;100760.56;7396424;19;20021;-72
2022/06/23 12:16:54;;;;;;;5.78;1.50;;;;;;;31.29;21.73;100750.06;7399853;19;20019;-68
2022/06/23 12:19:28;;;;;;;2.58;1.58;;;;;;;31.47;21.66;100752.59;7398429;19;20015;-68
2022/06/23 12:22:06;;;;;;;3.03;1.27;;;;;;;31.62;21.13;100750.03;7398855;19;20017;-68
2022/06/23 12:24:43;;;;;;;2.67;1.50;;;;;;;31.75;21.42;100752.25;7395296;19;20035;-69
2022/06/23 12:27:19;;;;;;;1.48;0.85;;;;;;;31.86;21.03;100755.59;7397900;19;20457;-71
2022/06/23 12:29:56;;;;;;;1.77;1.20;;;;;;;31.99;20.74;100758.63;7395431;19;20022;-70
2022/06/23 12:32:33;;;;;;;2.97;1.13;;;;;;;32.04;20.60;100744.53;7398431;19;20026;-69
2022/06/23 12:35:09;;;;;;;2.83;1.20;;;;;;;32.15;20.19;100744.13;7395934;19;20119;-69
2022/06/23 12:37:47;;;;;;;2.22;0.82;;;;;;;32.27;20.48;100753.63;7395037;19;20018;-70
2022/06/23 12:40:22;;;;;;;3.67;1.02;;;;;;;32.35;20.62;100749.19;7398270;19;20031;-69
2022/06/23 12:42:53;;;;;;;1.30;1.05;;;;;;;32.44;20.11;100737.25;7397304;19;20070;-69
2022/06/23 12:48:51;;;;;;;1.75;1.08;;;;;;;32.57;19.66;100740.25;7397440;19;20333;-70
2022/06/23 12:51:28;;;;;;;4.47;1.45;;;;;;;32.59;19.97;100735.50;7394705;19;20373;-69
2022/06/23 12:54:16;;;;;;;2.53;1.02;;;;;;;32.67;20.01;100741.88;7395862;19;20507;-69
2022/06/23 12:56:56;;;;;;;2.55;1.20;;;;;;;32.77;19.76;100737.09;7397880;19;20026;-70
2022/06/23 12:59:31;;;;;;;2.35;1.42;;;;;;;32.92;19.51;100734.47;7397922;19;20018;-69
2022/06/23 13:02:09;;;;;;;1.90;1.20;;;;;;;33.10;19.57;100732.28;7396288;19;20091;-69
2022/06/23 13:04:45;;;;;;;4.95;1.83;;;;;;;33.33;19.08;100727.88;7395320;19;20035;-70
2022/06/23 13:07:22;;;;;;;2.88;1.58;;;;;;;33.53;18.94;100725.47;7397382;19;20032;-70
2022/06/23 13:10:01;;;;;;;2.67;1.45;;;;;;;33.67;18.81;100719.22;7396086;19;20500;-69
2022/06/23 13:12:38;;;;;;;2.63;1.50;;;;;;;33.72;18.81;100729.56;7394289;19;20086;-70
2022/06/23 13:15:13;;;;;;;1.90;1.38;;;;;;;33.81;18.52;100711.22;7396041;19;20040;-70
2022/06/23 13:17:46;;;;;;;4.97;1.55;;;;;;;33.93;19.17;100717.94;7394143;19;20373;-69
2022/06/23 13:20:24;;;;;;;2.70;1.80;;;;;;;34.07;19.31;100711.66;7396892;19;20015;-68
2022/06/23 13:22:59;;;;;;;3.17;1.35;;;;;;;34.20;19.48;100705.53;7395500;19;20018;-70
2022/06/23 13:25:34;;;;;;;1.60;1.08;;;;;;;34.35;19.36;100704.69;7393807;19;20549;-70
2022/06/23 13:28:05;;;;;;;4.32;1.70;;;;;;;34.47;19.53;100705.88;7395821;19;20022;-70
2022/06/23 13:30:44;;;;;;;3.38;1.98;;;;;;;34.58;19.56;100699.91;7396535;19;20018;-70
2022/06/23 13:33:30;;;;;;;3.28;1.90;;;;;;;34.66;19.38;100688.06;7395256;19;20014;-70
2022/06/23 13:36:05;;;;;;;2.17;1.98;;;;;;;34.80;19.25;100691.75;7395642;19;20026;-70
2022/06/23 13:38:43;;;;;;;1.52;1.40;;;;;;;34.93;19.17;100692.94;7395179;19;20010;-70
2022/06/23 13:41:22;;;;;;;3.45;3.08;;;;;;;35.01;19.10;100690.94;7393485;19;20026;-70
2022/06/23 13:43:58;;;;;;;4.60;1.67;;;;;;;35.14;19.17;100684.75;7394818;19;20011;-70
2022/06/23 13:46:34;;;;;;;2.38;1.60;;;;;;;35.18;18.51;100686.03;7394436;19;20023;-70
2022/06/23 13:49:12;;;;;;;5.43;2.05;;;;;;;35.17;18.58;100683.50;7395310;19;20019;-70
2022/06/23 13:51:46;;;;;;;1.70;1.30;;;;;;;35.20;18.21;100677.69;7394113;19;20010;-71
2022/06/23 13:54:22;;;;;;;1.88;1.50;;;;;;;35.19;18.06;100676.00;7392895;19;20036;-71
2022/06/23 13:57:02;;;;;;;5.30;1.50;;;;;;;35.22;18.69;100686.47;7395549;19;20031;-71
2022/06/23 13:59:42;;;;;;;4.15;1.38;;;;;;;35.35;18.95;100685.75;7396075;19;20035;-71
2022/06/23 14:02:18;;;;;;;4.68;2.20;;;;;;;35.45;18.66;100683.56;7394577;19;20010;-71
2022/06/23 14:04:52;;;;;;;3.35;1.85;;;;;;;35.60;18.34;100671.69;7392756;19;20022;-71
2022/06/23 14:07:27;;;;;;;1.98;1.70;;;;;;;35.79;17.96;100661.91;7394371;19;20019;-71
2022/06/23 14:10:01;;;;;;;2.30;2.10;;;;;;;35.97;18.03;100661.38;7392663;19;20018;-71
2022/06/23 14:12:39;;;;;;;2.42;2.08;;;;;;;36.14;18.21;100653.69;7392643;19;20018;-71
2022/06/23 14:15:16;;;;;;;3.33;1.70;;;;;;;36.26;18.06;100657.53;7393290;19;20022;-70